sensor_id;sensor_type;location;lat;lon;timestamp;temperature;humidity
22173;DHT22;11252;50.596;17.648;2022-11-20T00:01:29;-6.10;92.20
22173;DHT22;11252;50.596;17.648;2022-11-20T00:03:57;-6.00;92.20
22173;DHT22;11252;50.596;17.648;2022-11-20T00:06:26;-6.10;92.20
22173;DHT22;11252;50.596;17.648;2022-11-20T00:08:56;-6.10;92.20
22173;DHT22;11252;50.596;17.648;2022-11-20T00:11:24;-6.10;92.20
22173;DHT22;11252;50.596;17.648;2022-11-20T00:13:54;-6.10;92.20
22173;DHT22;11252;50.596;17.648;2022-11-20T00:16:24;-6.10;92.20
22173;DHT22;11252;50.596;17.648;2022-11-20T00:18:51;-6.10;92.20
22173;DHT22;11252;50.596;17.648;2022-11-20T00:21:20;-6.20;92.20
22173;DHT22;11252;50.596;17.648;2022-11-20T00:23:48;-6.20;92.20
22173;DHT22;11252;50.596;17.648;2022-11-20T00:26:17;-6.20;92.20
22173;DHT22;11252;50.596;17.648;2022-11-20T00:28:50;-6.20;92.20
22173;DHT22;11252;50.596;17.648;2022-11-20T00:31:18;-6.20;92.20
22173;DHT22;11252;50.596;17.648;2022-11-20T00:33:49;-6.10;92.20
22173;DHT22;11252;50.596;17.648;2022-11-20T00:36:18;-6.20;92.20
22173;DHT22;11252;50.596;17.648;2022-11-20T00:38:46;-6.10;92.20
22173;DHT22;11252;50.596;17.648;2022-11-20T00:41:15;-6.10;92.20
22173;DHT22;11252;50.596;17.648;2022-11-20T00:43:42;-6.10;92.20
22173;DHT22;11252;50.596;17.648;2022-11-20T00:46:15;-6.00;92.20
22173;DHT22;11252;50.596;17.648;2022-11-20T00:48:43;-6.00;92.20
22173;DHT22;11252;50.596;17.648;2022-11-20T00:51:15;-6.00;92.20
22173;DHT22;11252;50.596;17.648;2022-11-20T00:53:42;-6.00;92.20
22173;DHT22;11252;50.596;17.648;2022-11-20T00:56:13;-6.00;92.20
22173;DHT22;11252;50.596;17.648;2022-11-20T00:58:42;-6.00;92.20
22173;DHT22;11252;50.596;17.648;2022-11-20T01:01:21;-6.10;92.20
22173;DHT22;11252;50.596;17.648;2022-11-20T01:03:53;-6.20;92.20
22173;DHT22;11252;50.596;17.648;2022-11-20T01:06:22;-6.20;92.20
22173;DHT22;11252;50.596;17.648;2022-11-20T01:08:52;-6.20;92.20
22173;DHT22;11252;50.596;17.648;2022-11-20T01:11:23;-6.30;92.20
22173;DHT22;11252;50.596;17.648;2022-11-20T01:13:52;-6.30;92.20
22173;DHT22;11252;50.596;17.648;2022-11-20T01:16:28;-6.30;92.20
22173;DHT22;11252;50.596;17.648;2022-11-20T01:18:57;-6.30;92.20
22173;DHT22;11252;50.596;17.648;2022-11-20T01:21:28;-6.30;92.20
22173;DHT22;11252;50.596;17.648;2022-11-20T01:23:56;-6.40;92.20
22173;DHT22;11252;50.596;17.648;2022-11-20T01:26:26;-6.40;92.20
22173;DHT22;11252;50.596;17.648;2022-11-20T01:28:54;-6.40;92.20
22173;DHT22;11252;50.596;17.648;2022-11-20T01:31:32;-6.40;92.20
22173;DHT22;11252;50.596;17.648;2022-11-20T01:34:04;-6.40;92.20
22173;DHT22;11252;50.596;17.648;2022-11-20T01:36:34;-6.40;92.20
22173;DHT22;11252;50.596;17.648;2022-11-20T01:39:07;-6.50;92.20
22173;DHT22;11252;50.596;17.648;2022-11-20T01:41:34;-6.50;92.20
22173;DHT22;11252;50.596;17.648;2022-11-20T01:44:39;-6.60;92.20
22173;DHT22;11252;50.596;17.648;2022-11-20T01:47:09;-6.60;92.20
22173;DHT22;11252;50.596;17.648;2022-11-20T01:49:58;-6.60;92.20
22173;DHT22;11252;50.596;17.648;2022-11-20T01:52:35;-6.70;92.20
22173;DHT22;11252;50.596;17.648;2022-11-20T01:55:13;-6.70;92.20
22173;DHT22;11252;50.596;17.648;2022-11-20T01:57:41;-6.70;92.20
22173;DHT22;11252;50.596;17.648;2022-11-20T02:00:13;-6.80;92.20
22173;DHT22;11252;50.596;17.648;2022-11-20T02:02:46;-6.80;92.20
22173;DHT22;11252;50.596;17.648;2022-11-20T02:05:27;-6.80;92.20
22173;DHT22;11252;50.596;17.648;2022-11-20T02:07:56;-6.80;92.20
22173;DHT22;11252;50.596;17.648;2022-11-20T02:10:26;-6.90;92.20
22173;DHT22;11252;50.596;17.648;2022-11-20T02:12:54;-6.90;92.20
22173;DHT22;11252;50.596;17.648;2022-11-20T02:15:40;-6.90;92.20
22173;DHT22;11252;50.596;17.648;2022-11-20T02:18:07;-6.90;92.20
22173;DHT22;11252;50.596;17.648;2022-11-20T02:20:36;-6.90;92.20
22173;DHT22;11252;50.596;17.648;2022-11-20T02:23:11;-7.00;92.20
22173;DHT22;11252;50.596;17.648;2022-11-20T02:25:40;-7.00;92.20
22173;DHT22;11252;50.596;17.648;2022-11-20T02:28:08;-7.00;92.20
22173;DHT22;11252;50.596;17.648;2022-11-20T02:30:35;-7.00;92.20
22173;DHT22;11252;50.596;17.648;2022-11-20T02:33:02;-7.00;92.20
22173;DHT22;11252;50.596;17.648;2022-11-20T02:37:59;-7.10;92.20
22173;DHT22;11252;50.596;17.648;2022-11-20T02:40:28;-7.10;92.20
22173;DHT22;11252;50.596;17.648;2022-11-20T02:42:56;-7.10;92.20
22173;DHT22;11252;50.596;17.648;2022-11-20T02:45:24;-7.10;92.20
22173;DHT22;11252;50.596;17.648;2022-11-20T02:47:52;-7.10;92.20
22173;DHT22;11252;50.596;17.648;2022-11-20T02:50:19;-7.10;92.20
22173;DHT22;11252;50.596;17.648;2022-11-20T02:52:47;-7.10;92.20
22173;DHT22;11252;50.596;17.648;2022-11-20T02:55:14;-7.10;92.20
22173;DHT22;11252;50.596;17.648;2022-11-20T02:57:41;-7.10;92.20
22173;DHT22;11252;50.596;17.648;2022-11-20T03:00:09;-7.20;92.20
22173;DHT22;11252;50.596;17.648;2022-11-20T03:02:36;-7.20;92.20
22173;DHT22;11252;50.596;17.648;2022-11-20T03:05:04;-7.20;92.20
22173;DHT22;11252;50.596;17.648;2022-11-20T03:07:31;-7.20;92.20
22173;DHT22;11252;50.596;17.648;2022-11-20T03:09:58;-7.30;92.20
22173;DHT22;11252;50.596;17.648;2022-11-20T03:12:25;-7.30;92.20
22173;DHT22;11252;50.596;17.648;2022-11-20T03:14:52;-7.30;92.20
22173;DHT22;11252;50.596;17.648;2022-11-20T03:17:20;-7.30;92.20
22173;DHT22;11252;50.596;17.648;2022-11-20T03:19:47;-7.30;92.20
22173;DHT22;11252;50.596;17.648;2022-11-20T03:22:14;-7.30;92.20
22173;DHT22;11252;50.596;17.648;2022-11-20T03:24:41;-7.20;92.20
22173;DHT22;11252;50.596;17.648;2022-11-20T03:27:08;-7.20;92.20
22173;DHT22;11252;50.596;17.648;2022-11-20T03:29:35;-7.20;92.20
22173;DHT22;11252;50.596;17.648;2022-11-20T03:32:03;-7.20;92.20
22173;DHT22;11252;50.596;17.648;2022-11-20T03:34:30;-7.20;92.20
22173;DHT22;11252;50.596;17.648;2022-11-20T03:36:57;-7.30;92.20
22173;DHT22;11252;50.596;17.648;2022-11-20T03:39:24;-7.30;92.20
22173;DHT22;11252;50.596;17.648;2022-11-20T03:41:51;-7.40;92.20
22173;DHT22;11252;50.596;17.648;2022-11-20T03:44:21;-7.40;92.20
22173;DHT22;11252;50.596;17.648;2022-11-20T03:46:48;-7.30;92.20
22173;DHT22;11252;50.596;17.648;2022-11-20T03:49:15;-7.30;92.20
22173;DHT22;11252;50.596;17.648;2022-11-20T03:51:42;-7.30;92.20
22173;DHT22;11252;50.596;17.648;2022-11-20T03:54:10;-7.30;92.20
22173;DHT22;11252;50.596;17.648;2022-11-20T03:56:38;-7.20;92.20
22173;DHT22;11252;50.596;17.648;2022-11-20T03:59:06;-7.20;92.20
22173;DHT22;11252;50.596;17.648;2022-11-20T04:01:35;-7.30;92.20
22173;DHT22;11252;50.596;17.648;2022-11-20T04:04:04;-7.30;92.20
22173;DHT22;11252;50.596;17.648;2022-11-20T04:06:36;-7.40;92.20
22173;DHT22;11252;50.596;17.648;2022-11-20T04:09:04;-7.40;92.20
22173;DHT22;11252;50.596;17.648;2022-11-20T04:11:34;-7.50;92.20
22173;DHT22;11252;50.596;17.648;2022-11-20T04:14:04;-7.50;92.20
22173;DHT22;11252;50.596;17.648;2022-11-20T04:16:33;-7.50;92.20
22173;DHT22;11252;50.596;17.648;2022-11-20T04:19:02;-7.50;92.20
22173;DHT22;11252;50.596;17.648;2022-11-20T04:21:30;-7.50;92.20
22173;DHT22;11252;50.596;17.648;2022-11-20T04:23:57;-7.40;92.20
22173;DHT22;11252;50.596;17.648;2022-11-20T04:26:26;-7.40;92.20
22173;DHT22;11252;50.596;17.648;2022-11-20T04:28:54;-7.40;92.20
22173;DHT22;11252;50.596;17.648;2022-11-20T04:31:23;-7.40;92.20
22173;DHT22;11252;50.596;17.648;2022-11-20T04:33:51;-7.40;92.20
22173;DHT22;11252;50.596;17.648;2022-11-20T04:36:23;-7.40;92.20
22173;DHT22;11252;50.596;17.648;2022-11-20T04:38:52;-7.50;92.20
22173;DHT22;11252;50.596;17.648;2022-11-20T04:41:24;-7.50;92.20
22173;DHT22;11252;50.596;17.648;2022-11-20T04:43:54;-7.50;92.20
22173;DHT22;11252;50.596;17.648;2022-11-20T04:46:27;-7.50;92.20
22173;DHT22;11252;50.596;17.648;2022-11-20T04:48:55;-7.60;92.20
22173;DHT22;11252;50.596;17.648;2022-11-20T04:51:22;-7.60;92.20
22173;DHT22;11252;50.596;17.648;2022-11-20T04:53:49;-7.60;92.20
22173;DHT22;11252;50.596;17.648;2022-11-20T04:56:17;-7.70;92.20
22173;DHT22;11252;50.596;17.648;2022-11-20T04:58:44;-7.70;92.20
22173;DHT22;11252;50.596;17.648;2022-11-20T05:01:20;-7.70;92.20
22173;DHT22;11252;50.596;17.648;2022-11-20T05:03:48;-7.70;92.20
22173;DHT22;11252;50.596;17.648;2022-11-20T05:06:17;-7.70;92.20
22173;DHT22;11252;50.596;17.648;2022-11-20T05:08:44;-7.80;92.20
22173;DHT22;11252;50.596;17.648;2022-11-20T05:11:14;-7.70;92.20
22173;DHT22;11252;50.596;17.648;2022-11-20T05:13:42;-7.80;92.20
22173;DHT22;11252;50.596;17.648;2022-11-20T05:16:15;-7.80;92.20
22173;DHT22;11252;50.596;17.648;2022-11-20T05:18:43;-7.80;92.20
22173;DHT22;11252;50.596;17.648;2022-11-20T05:21:11;-7.80;92.20
22173;DHT22;11252;50.596;17.648;2022-11-20T05:23:39;-7.90;92.20
22173;DHT22;11252;50.596;17.648;2022-11-20T05:26:08;-7.90;92.20
22173;DHT22;11252;50.596;17.648;2022-11-20T05:28:38;-7.90;92.20
22173;DHT22;11252;50.596;17.648;2022-11-20T05:31:06;-7.90;92.20
22173;DHT22;11252;50.596;17.648;2022-11-20T05:33:35;-7.90;92.20
22173;DHT22;11252;50.596;17.648;2022-11-20T05:36:03;-7.90;92.20
22173;DHT22;11252;50.596;17.648;2022-11-20T05:38:31;-8.00;92.20
22173;DHT22;11252;50.596;17.648;2022-11-20T05:41:16;-8.00;92.20
22173;DHT22;11252;50.596;17.648;2022-11-20T05:43:45;-8.00;92.20
22173;DHT22;11252;50.596;17.648;2022-11-20T05:46:16;-8.00;92.20
22173;DHT22;11252;50.596;17.648;2022-11-20T05:48:48;-8.00;92.20
22173;DHT22;11252;50.596;17.648;2022-11-20T05:51:17;-8.00;92.20
22173;DHT22;11252;50.596;17.648;2022-11-20T05:53:45;-7.90;92.20
22173;DHT22;11252;50.596;17.648;2022-11-20T05:56:17;-7.90;92.20
22173;DHT22;11252;50.596;17.648;2022-11-20T05:58:45;-8.00;92.20
22173;DHT22;11252;50.596;17.648;2022-11-20T06:01:24;-8.00;92.20
22173;DHT22;11252;50.596;17.648;2022-11-20T06:03:52;-8.00;92.20
22173;DHT22;11252;50.596;17.648;2022-11-20T06:06:19;-8.00;92.20
22173;DHT22;11252;50.596;17.648;2022-11-20T06:08:48;-8.00;92.20
22173;DHT22;11252;50.596;17.648;2022-11-20T06:11:16;-8.00;92.20
22173;DHT22;11252;50.596;17.648;2022-11-20T06:13:44;-8.00;92.20
22173;DHT22;11252;50.596;17.648;2022-11-20T06:16:13;-8.10;92.20
22173;DHT22;11252;50.596;17.648;2022-11-20T06:18:41;-8.10;92.20
22173;DHT22;11252;50.596;17.648;2022-11-20T06:21:13;-8.10;92.20
22173;DHT22;11252;50.596;17.648;2022-11-20T06:23:42;-8.10;92.20
22173;DHT22;11252;50.596;17.648;2022-11-20T06:26:22;-8.00;92.20
22173;DHT22;11252;50.596;17.648;2022-11-20T06:28:50;-8.00;92.20
22173;DHT22;11252;50.596;17.648;2022-11-20T06:31:20;-8.00;92.20
22173;DHT22;11252;50.596;17.648;2022-11-20T06:33:50;-8.00;92.20
22173;DHT22;11252;50.596;17.648;2022-11-20T06:36:21;-8.00;92.20
22173;DHT22;11252;50.596;17.648;2022-11-20T06:38:48;-8.00;92.20
22173;DHT22;11252;50.596;17.648;2022-11-20T06:41:19;-8.00;92.20
22173;DHT22;11252;50.596;17.648;2022-11-20T06:43:47;-7.90;92.20
22173;DHT22;11252;50.596;17.648;2022-11-20T06:46:15;-7.90;92.20
22173;DHT22;11252;50.596;17.648;2022-11-20T06:48:47;-7.90;92.20
22173;DHT22;11252;50.596;17.648;2022-11-20T06:51:15;-7.90;92.20
22173;DHT22;11252;50.596;17.648;2022-11-20T06:53:42;-7.80;92.20
22173;DHT22;11252;50.596;17.648;2022-11-20T06:56:10;-7.80;92.20
22173;DHT22;11252;50.596;17.648;2022-11-20T06:58:37;-7.80;92.20
22173;DHT22;11252;50.596;17.648;2022-11-20T07:01:07;-7.40;92.20
22173;DHT22;11252;50.596;17.648;2022-11-20T07:03:36;-7.20;92.20
22173;DHT22;11252;50.596;17.648;2022-11-20T07:06:03;-7.10;92.20
22173;DHT22;11252;50.596;17.648;2022-11-20T07:08:34;-7.10;92.20
22173;DHT22;11252;50.596;17.648;2022-11-20T07:11:04;-7.10;92.20
22173;DHT22;11252;50.596;17.648;2022-11-20T07:13:32;-7.20;92.20
22173;DHT22;11252;50.596;17.648;2022-11-20T07:16:01;-7.20;92.20
22173;DHT22;11252;50.596;17.648;2022-11-20T07:18:29;-7.20;92.20
22173;DHT22;11252;50.596;17.648;2022-11-20T07:21:03;-7.30;92.20
22173;DHT22;11252;50.596;17.648;2022-11-20T07:23:31;-7.20;92.20
22173;DHT22;11252;50.596;17.648;2022-11-20T07:26:02;-7.20;92.20
22173;DHT22;11252;50.596;17.648;2022-11-20T07:28:29;-7.10;92.20
22173;DHT22;11252;50.596;17.648;2022-11-20T07:30:56;-7.00;92.20
22173;DHT22;11252;50.596;17.648;2022-11-20T07:33:23;-6.80;92.20
22173;DHT22;11252;50.596;17.648;2022-11-20T07:35:51;-6.70;92.20
22173;DHT22;11252;50.596;17.648;2022-11-20T07:38:18;-6.60;92.20
22173;DHT22;11252;50.596;17.648;2022-11-20T07:40:45;-6.60;92.20
22173;DHT22;11252;50.596;17.648;2022-11-20T07:43:13;-6.40;92.20
22173;DHT22;11252;50.596;17.648;2022-11-20T07:45:40;-6.40;92.20
22173;DHT22;11252;50.596;17.648;2022-11-20T07:48:07;-6.40;92.20
22173;DHT22;11252;50.596;17.648;2022-11-20T07:50:34;-6.20;92.20
22173;DHT22;11252;50.596;17.648;2022-11-20T07:53:05;-6.20;92.20
22173;DHT22;11252;50.596;17.648;2022-11-20T07:55:33;-6.00;92.20
22173;DHT22;11252;50.596;17.648;2022-11-20T07:58:03;-6.00;92.20
22173;DHT22;11252;50.596;17.648;2022-11-20T08:00:30;-6.00;92.20
22173;DHT22;11252;50.596;17.648;2022-11-20T08:02:57;-5.80;92.20
22173;DHT22;11252;50.596;17.648;2022-11-20T08:05:25;-5.80;92.20
22173;DHT22;11252;50.596;17.648;2022-11-20T08:07:52;-5.70;92.20
22173;DHT22;11252;50.596;17.648;2022-11-20T08:10:20;-5.60;92.20
22173;DHT22;11252;50.596;17.648;2022-11-20T08:12:51;-5.50;92.20
22173;DHT22;11252;50.596;17.648;2022-11-20T08:15:39;-5.40;92.20
22173;DHT22;11252;50.596;17.648;2022-11-20T08:18:09;-5.20;92.20
22173;DHT22;11252;50.596;17.648;2022-11-20T08:20:58;-5.10;92.20
22173;DHT22;11252;50.596;17.648;2022-11-20T08:23:28;-4.90;92.20
22173;DHT22;11252;50.596;17.648;2022-11-20T08:25:55;-4.80;92.20
22173;DHT22;11252;50.596;17.648;2022-11-20T08:28:22;-4.70;92.20
22173;DHT22;11252;50.596;17.648;2022-11-20T08:30:50;-4.50;92.20
22173;DHT22;11252;50.596;17.648;2022-11-20T08:33:17;-4.30;92.20
22173;DHT22;11252;50.596;17.648;2022-11-20T08:35:47;-4.30;92.20
22173;DHT22;11252;50.596;17.648;2022-11-20T08:38:14;-4.20;92.20
22173;DHT22;11252;50.596;17.648;2022-11-20T08:40:41;-4.00;92.20
22173;DHT22;11252;50.596;17.648;2022-11-20T08:43:29;-3.90;92.20
22173;DHT22;11252;50.596;17.648;2022-11-20T08:45:57;-3.70;92.20
22173;DHT22;11252;50.596;17.648;2022-11-20T08:48:24;-3.60;92.20
22173;DHT22;11252;50.596;17.648;2022-11-20T08:50:51;-3.50;92.20
22173;DHT22;11252;50.596;17.648;2022-11-20T08:53:18;-3.30;92.20
22173;DHT22;11252;50.596;17.648;2022-11-20T08:55:46;-3.10;92.20
22173;DHT22;11252;50.596;17.648;2022-11-20T08:58:13;-2.10;92.20
22173;DHT22;11252;50.596;17.648;2022-11-20T09:00:40;-0.70;92.20
22173;DHT22;11252;50.596;17.648;2022-11-20T09:03:09;0.70;92.20
22173;DHT22;11252;50.596;17.648;2022-11-20T09:05:36;1.50;91.00
22173;DHT22;11252;50.596;17.648;2022-11-20T09:08:04;2.30;88.80
22173;DHT22;11252;50.596;17.648;2022-11-20T09:10:31;2.40;86.70
22173;DHT22;11252;50.596;17.648;2022-11-20T09:12:59;2.70;86.00
22173;DHT22;11252;50.596;17.648;2022-11-20T09:15:26;3.10;85.70
22173;DHT22;11252;50.596;17.648;2022-11-20T09:17:54;3.80;85.20
22173;DHT22;11252;50.596;17.648;2022-11-20T09:20:22;4.40;83.20
22173;DHT22;11252;50.596;17.648;2022-11-20T09:22:49;4.80;82.00
22173;DHT22;11252;50.596;17.648;2022-11-20T09:25:16;5.30;80.00
22173;DHT22;11252;50.596;17.648;2022-11-20T09:27:44;5.70;79.50
22173;DHT22;11252;50.596;17.648;2022-11-20T09:30:14;6.10;79.30
22173;DHT22;11252;50.596;17.648;2022-11-20T09:32:42;6.70;78.20
22173;DHT22;11252;50.596;17.648;2022-11-20T09:35:10;6.70;74.60
22173;DHT22;11252;50.596;17.648;2022-11-20T09:37:38;6.30;74.20
22173;DHT22;11252;50.596;17.648;2022-11-20T09:40:06;6.30;75.60
22173;DHT22;11252;50.596;17.648;2022-11-20T09:45:20;6.90;74.80
22173;DHT22;11252;50.596;17.648;2022-11-20T09:50:32;7.20;70.40
22173;DHT22;11252;50.596;17.648;2022-11-20T09:53:33;7.10;72.60
22173;DHT22;11252;50.596;17.648;2022-11-20T09:56:08;8.20;69.90
22173;DHT22;11252;50.596;17.648;2022-11-20T09:58:47;8.70;70.80
22173;DHT22;11252;50.596;17.648;2022-11-20T10:01:26;9.20;69.20
22173;DHT22;11252;50.596;17.648;2022-11-20T10:04:00;9.30;68.00
22173;DHT22;11252;50.596;17.648;2022-11-20T10:06:32;9.60;69.60
22173;DHT22;11252;50.596;17.648;2022-11-20T10:12:02;10.20;67.00
22173;DHT22;11252;50.596;17.648;2022-11-20T10:14:58;10.30;65.80
22173;DHT22;11252;50.596;17.648;2022-11-20T10:31:41;7.70;66.50
22173;DHT22;11252;50.596;17.648;2022-11-20T10:37:19;5.50;69.50
22173;DHT22;11252;50.596;17.648;2022-11-20T10:42:57;3.80;74.20
22173;DHT22;11252;50.596;17.648;2022-11-20T10:48:15;3.20;75.00
22173;DHT22;11252;50.596;17.648;2022-11-20T10:53:59;2.70;76.00
22173;DHT22;11252;50.596;17.648;2022-11-20T11:02:21;3.30;75.90
22173;DHT22;11252;50.596;17.648;2022-11-20T11:04:54;3.40;75.80
22173;DHT22;11252;50.596;17.648;2022-11-20T11:07:25;3.60;75.70
22173;DHT22;11252;50.596;17.648;2022-11-20T11:09:56;3.70;74.80
22173;DHT22;11252;50.596;17.648;2022-11-20T11:12:26;3.70;75.10
22173;DHT22;11252;50.596;17.648;2022-11-20T11:14:55;3.50;75.60
22173;DHT22;11252;50.596;17.648;2022-11-20T11:17:28;3.30;75.40
22173;DHT22;11252;50.596;17.648;2022-11-20T11:22:48;2.70;75.00
22173;DHT22;11252;50.596;17.648;2022-11-20T11:25:32;2.60;75.70
22173;DHT22;11252;50.596;17.648;2022-11-20T11:28:05;2.60;76.10
22173;DHT22;11252;50.596;17.648;2022-11-20T11:30:47;2.70;74.70
22173;DHT22;11252;50.596;17.648;2022-11-20T11:33:27;2.80;75.10
22173;DHT22;11252;50.596;17.648;2022-11-20T11:35:58;2.60;74.80
22173;DHT22;11252;50.596;17.648;2022-11-20T11:38:36;2.70;76.70
22173;DHT22;11252;50.596;17.648;2022-11-20T11:41:06;2.90;77.10
22173;DHT22;11252;50.596;17.648;2022-11-20T11:43:35;3.00;76.80
22173;DHT22;11252;50.596;17.648;2022-11-20T11:46:31;2.90;76.20
22173;DHT22;11252;50.596;17.648;2022-11-20T11:52:31;3.20;76.40
22173;DHT22;11252;50.596;17.648;2022-11-20T11:54:55;3.90;75.30
22173;DHT22;11252;50.596;17.648;2022-11-20T12:00:17;4.90;73.30
22173;DHT22;11252;50.596;17.648;2022-11-20T12:05:24;4.90;72.10
22173;DHT22;11252;50.596;17.648;2022-11-20T12:07:52;4.60;73.10
22173;DHT22;11252;50.596;17.648;2022-11-20T12:16:04;4.10;75.10
22173;DHT22;11252;50.596;17.648;2022-11-20T12:18:31;3.90;74.20
22173;DHT22;11252;50.596;17.648;2022-11-20T12:26:35;3.90;73.70
22173;DHT22;11252;50.596;17.648;2022-11-20T12:35:23;3.30;74.80
22173;DHT22;11252;50.596;17.648;2022-11-20T12:44:39;4.90;70.80
22173;DHT22;11252;50.596;17.648;2022-11-20T12:50:51;6.90;69.10
22173;DHT22;11252;50.596;17.648;2022-11-20T12:59:42;8.00;63.50
22173;DHT22;11252;50.596;17.648;2022-11-20T13:07:30;4.90;71.00
22173;DHT22;11252;50.596;17.648;2022-11-20T13:09:59;4.60;73.10
22173;DHT22;11252;50.596;17.648;2022-11-20T13:12:36;4.70;73.70
22173;DHT22;11252;50.596;17.648;2022-11-20T13:18:01;5.20;73.50
22173;DHT22;11252;50.596;17.648;2022-11-20T13:20:30;5.70;71.30
22173;DHT22;11252;50.596;17.648;2022-11-20T13:22:58;5.60;70.60
22173;DHT22;11252;50.596;17.648;2022-11-20T13:25:29;5.10;71.30
22173;DHT22;11252;50.596;17.648;2022-11-20T13:27:59;4.60;72.90
22173;DHT22;11252;50.596;17.648;2022-11-20T13:30:29;4.10;74.40
22173;DHT22;11252;50.596;17.648;2022-11-20T13:33:06;3.60;75.80
22173;DHT22;11252;50.596;17.648;2022-11-20T13:35:37;3.30;76.70
22173;DHT22;11252;50.596;17.648;2022-11-20T13:38:09;3.10;77.60
22173;DHT22;11252;50.596;17.648;2022-11-20T13:40:50;3.00;77.70
22173;DHT22;11252;50.596;17.648;2022-11-20T13:43:27;2.90;78.00
22173;DHT22;11252;50.596;17.648;2022-11-20T13:46:01;2.60;78.70
22173;DHT22;11252;50.596;17.648;2022-11-20T13:48:41;2.40;79.60
22173;DHT22;11252;50.596;17.648;2022-11-20T13:51:34;2.30;79.90
22173;DHT22;11252;50.596;17.648;2022-11-20T13:54:39;2.20;80.30
22173;DHT22;11252;50.596;17.648;2022-11-20T14:00:24;1.90;82.20
22173;DHT22;11252;50.596;17.648;2022-11-20T14:06:30;1.70;83.70
22173;DHT22;11252;50.596;17.648;2022-11-20T14:08:59;1.70;84.10
22173;DHT22;11252;50.596;17.648;2022-11-20T14:11:31;1.70;83.50
22173;DHT22;11252;50.596;17.648;2022-11-20T14:14:04;1.60;84.40
22173;DHT22;11252;50.596;17.648;2022-11-20T14:16:37;1.60;84.70
22173;DHT22;11252;50.596;17.648;2022-11-20T14:21:48;1.40;84.50
22173;DHT22;11252;50.596;17.648;2022-11-20T14:24:23;1.30;84.70
22173;DHT22;11252;50.596;17.648;2022-11-20T14:26:52;1.30;85.20
22173;DHT22;11252;50.596;17.648;2022-11-20T14:29:26;1.30;84.80
22173;DHT22;11252;50.596;17.648;2022-11-20T14:31:55;1.10;84.40
22173;DHT22;11252;50.596;17.648;2022-11-20T14:34:28;1.10;84.70
22173;DHT22;11252;50.596;17.648;2022-11-20T14:37:01;1.10;85.20
22173;DHT22;11252;50.596;17.648;2022-11-20T14:39:36;1.10;84.70
22173;DHT22;11252;50.596;17.648;2022-11-20T14:42:16;1.00;84.90
22173;DHT22;11252;50.596;17.648;2022-11-20T14:44:44;1.00;85.40
22173;DHT22;11252;50.596;17.648;2022-11-20T14:47:13;1.00;85.80
22173;DHT22;11252;50.596;17.648;2022-11-20T14:49:42;0.90;85.80
22173;DHT22;11252;50.596;17.648;2022-11-20T14:52:21;0.80;86.10
22173;DHT22;11252;50.596;17.648;2022-11-20T14:54:58;0.80;86.20
22173;DHT22;11252;50.596;17.648;2022-11-20T14:57:34;0.90;86.30
22173;DHT22;11252;50.596;17.648;2022-11-20T15:02:48;0.90;86.80
22173;DHT22;11252;50.596;17.648;2022-11-20T15:05:18;0.80;86.90
22173;DHT22;11252;50.596;17.648;2022-11-20T15:08:13;0.80;87.20
22173;DHT22;11252;50.596;17.648;2022-11-20T15:10:51;0.70;87.70
22173;DHT22;11252;50.596;17.648;2022-11-20T15:15:58;0.60;88.10
22173;DHT22;11252;50.596;17.648;2022-11-20T15:20:58;0.50;88.30
22173;DHT22;11252;50.596;17.648;2022-11-20T15:23:28;0.60;88.10
22173;DHT22;11252;50.596;17.648;2022-11-20T15:25:56;0.50;88.30
22173;DHT22;11252;50.596;17.648;2022-11-20T15:28:32;0.50;88.60
22173;DHT22;11252;50.596;17.648;2022-11-20T15:31:00;0.50;88.80
22173;DHT22;11252;50.596;17.648;2022-11-20T15:33:29;0.40;88.70
22173;DHT22;11252;50.596;17.648;2022-11-20T15:35:57;0.40;88.80
22173;DHT22;11252;50.596;17.648;2022-11-20T15:38:24;0.40;89.00
22173;DHT22;11252;50.596;17.648;2022-11-20T15:40:51;0.50;88.90
22173;DHT22;11252;50.596;17.648;2022-11-20T15:43:18;0.40;89.20
22173;DHT22;11252;50.596;17.648;2022-11-20T15:45:51;0.40;89.70
22173;DHT22;11252;50.596;17.648;2022-11-20T15:48:23;0.40;89.70
22173;DHT22;11252;50.596;17.648;2022-11-20T15:53:22;0.40;89.80
22173;DHT22;11252;50.596;17.648;2022-11-20T15:55:49;0.30;89.90
22173;DHT22;11252;50.596;17.648;2022-11-20T15:58:17;0.30;89.90
22173;DHT22;11252;50.596;17.648;2022-11-20T16:00:44;0.30;89.70
22173;DHT22;11252;50.596;17.648;2022-11-20T16:03:13;0.20;89.90
22173;DHT22;11252;50.596;17.648;2022-11-20T16:05:41;0.20;90.10
22173;DHT22;11252;50.596;17.648;2022-11-20T16:08:10;0.10;90.30
22173;DHT22;11252;50.596;17.648;2022-11-20T16:10:38;0.10;90.50
22173;DHT22;11252;50.596;17.648;2022-11-20T16:13:17;0.00;90.70
22173;DHT22;11252;50.596;17.648;2022-11-20T16:16:07;0.00;91.00
22173;DHT22;11252;50.596;17.648;2022-11-20T16:18:38;0.00;91.00
22173;DHT22;11252;50.596;17.648;2022-11-20T16:21:11;-0.10;91.20
22173;DHT22;11252;50.596;17.648;2022-11-20T16:23:40;-0.10;91.40
22173;DHT22;11252;50.596;17.648;2022-11-20T16:26:14;-0.20;91.50
22173;DHT22;11252;50.596;17.648;2022-11-20T16:28:41;-0.20;91.50
22173;DHT22;11252;50.596;17.648;2022-11-20T16:31:14;-0.20;91.60
22173;DHT22;11252;50.596;17.648;2022-11-20T16:33:48;-0.30;91.90
22173;DHT22;11252;50.596;17.648;2022-11-20T16:36:17;-0.30;92.20
22173;DHT22;11252;50.596;17.648;2022-11-20T16:38:45;-0.40;92.20
22173;DHT22;11252;50.596;17.648;2022-11-20T16:41:16;-0.50;92.20
22173;DHT22;11252;50.596;17.648;2022-11-20T16:43:49;-0.60;92.20
22173;DHT22;11252;50.596;17.648;2022-11-20T16:46:18;-0.70;92.20
22173;DHT22;11252;50.596;17.648;2022-11-20T16:48:55;-0.80;92.20
22173;DHT22;11252;50.596;17.648;2022-11-20T16:51:24;-0.90;92.20
22173;DHT22;11252;50.596;17.648;2022-11-20T16:53:52;-0.90;92.20
22173;DHT22;11252;50.596;17.648;2022-11-20T16:56:25;-0.90;92.20
22173;DHT22;11252;50.596;17.648;2022-11-20T16:58:56;-1.00;92.20
22173;DHT22;11252;50.596;17.648;2022-11-20T17:01:27;-1.00;92.20
22173;DHT22;11252;50.596;17.648;2022-11-20T17:04:03;-1.10;92.20
22173;DHT22;11252;50.596;17.648;2022-11-20T17:06:33;-1.20;92.20
22173;DHT22;11252;50.596;17.648;2022-11-20T17:09:01;-1.20;92.20
22173;DHT22;11252;50.596;17.648;2022-11-20T17:11:30;-1.20;92.20
22173;DHT22;11252;50.596;17.648;2022-11-20T17:14:03;-1.30;92.20
22173;DHT22;11252;50.596;17.648;2022-11-20T17:16:31;-1.40;92.20
22173;DHT22;11252;50.596;17.648;2022-11-20T17:19:01;-1.40;92.20
22173;DHT22;11252;50.596;17.648;2022-11-20T17:21:31;-1.40;92.20
22173;DHT22;11252;50.596;17.648;2022-11-20T17:24:00;-1.40;92.20
22173;DHT22;11252;50.596;17.648;2022-11-20T17:26:32;-1.50;92.20
22173;DHT22;11252;50.596;17.648;2022-11-20T17:29:04;-1.50;92.20
22173;DHT22;11252;50.596;17.648;2022-11-20T17:31:33;-1.60;92.20
22173;DHT22;11252;50.596;17.648;2022-11-20T17:34:03;-1.70;92.20
22173;DHT22;11252;50.596;17.648;2022-11-20T17:36:31;-1.70;92.20
22173;DHT22;11252;50.596;17.648;2022-11-20T17:38:59;-1.70;92.20